Time;durP1;ratioP1;P1;durP2;ratioP2;P2;SDS_P1;SDS_P2;PMS_P1;PMS_P2;Temp;Humidity;BMP_temperature;BMP_pressure;BME280_temperature;BME280_humidity;BME280_pressure;Samples;Min_cycle;Max_cycle;Signal;HPM_P1;HPM_P2
2023/03/04 00:00:01;;;;;;;13.50;7.30;;;;;;;2.47;68.59;98827.13;78539;1292;3053991;-66
2023/03/04 00:02:45;;;;;;;23.10;7.00;;;;;;;2.46;68.77;98818.89;78327;1295;3051184;-66
2023/03/04 00:05:12;;;;;;;15.60;7.90;;;;;;;2.46;68.71;98825.45;79612;1292;3013600;-64
2023/03/04 00:07:38;;;;;;;17.40;7.50;;;;;;;2.45;68.80;98817.52;79919;1295;3013876;-64
2023/03/04 00:10:09;;;;;;;13.40;6.70;;;;;;;2.52;68.61;98815.36;78728;1295;3051049;-67
2023/03/04 00:12:38;;;;;;;20.00;8.60;;;;;;;2.41;68.78;98808.20;80060;1292;3011504;-64
2023/03/04 00:15:08;;;;;;;17.40;8.70;;;;;;;2.27;69.35;98810.41;79632;1292;3012668;-62
2023/03/04 00:17:34;;;;;;;17.00;8.50;;;;;;;2.33;69.36;98808.46;80063;1293;3011846;-65
2023/03/04 00:20:02;;;;;;;15.40;8.50;;;;;;;2.46;68.93;98802.10;79844;1292;3011423;-63
2023/03/04 00:22:30;;;;;;;17.50;8.20;;;;;;;2.37;69.16;98802.63;78663;1295;3050746;-67
2023/03/04 00:24:57;;;;;;;19.80;9.80;;;;;;;2.40;69.07;98804.73;79812;1292;3012736;-64
2023/03/04 00:27:25;;;;;;;15.40;8.00;;;;;;;2.38;69.17;98796.02;79618;1291;3013039;-65
2023/03/04 00:29:52;;;;;;;18.20;8.70;;;;;;;2.41;69.23;98800.02;78522;1292;3050378;-65
2023/03/04 00:32:20;;;;;;;17.80;8.30;;;;;;;2.41;68.96;98798.66;79723;1292;3013240;-66
2023/03/04 00:34:47;;;;;;;14.10;8.00;;;;;;;2.46;68.74;98792.58;79701;1292;3011911;-65
2023/03/04 00:37:16;;;;;;;17.50;8.90;;;;;;;2.53;68.64;98790.75;78573;1295;3050777;-66
2023/03/04 00:39:43;;;;;;;20.50;8.30;;;;;;;2.48;68.55;98789.59;79798;1292;3013847;-66
2023/03/04 00:42:10;;;;;;;14.90;7.30;;;;;;;2.50;68.34;98789.68;79801;1295;3013183;-67
2023/03/04 00:44:41;;;;;;;16.90;7.70;;;;;;;2.45;68.60;98780.90;78417;1295;3047879;-64
2023/03/04 00:47:07;;;;;;;20.90;8.50;;;;;;;2.52;68.25;98786.66;79763;1297;3013568;-65
2023/03/04 00:49:34;;;;;;;15.70;7.90;;;;;;;2.59;68.22;98784.86;79723;1292;3011894;-67
2023/03/04 00:52:02;;;;;;;20.20;9.40;;;;;;;2.52;68.39;98788.23;78546;1295;3025676;-67
2023/03/04 00:54:32;;;;;;;17.90;10.00;;;;;;;2.52;68.53;98785.13;79719;1297;3012152;-65
2023/03/04 00:57:00;;;;;;;20.10;9.90;;;;;;;2.40;68.99;98786.27;78497;1291;3026490;-68
2023/03/04 00:59:26;;;;;;;22.60;10.30;;;;;;;2.44;68.81;98780.04;79780;1292;3013213;-66
2023/03/04 01:01:54;;;;;;;20.10;9.90;;;;;;;2.34;69.12;98779.06;79800;1292;3011817;-65
2023/03/04 01:04:23;;;;;;;17.70;9.70;;;;;;;2.42;69.14;98782.21;78572;1292;3049342;-64
2023/03/04 01:06:51;;;;;;;20.20;9.30;;;;;;;2.32;69.45;98781.02;79727;1298;3013282;-65
2023/03/04 01:09:23;;;;;;;17.50;9.00;;;;;;;2.41;69.54;98777.23;78489;1295;3069044;-63
2023/03/04 01:11:52;;;;;;;21.60;11.10;;;;;;;2.50;69.34;98782.43;79707;1292;3011733;-65
2023/03/04 01:14:21;;;;;;;18.00;8.50;;;;;;;2.43;69.21;98776.46;79047;1292;3011760;-64
2023/03/04 01:16:48;;;;;;;16.40;9.10;;;;;;;2.40;69.32;98778.81;79829;1295;3013154;-64
2023/03/04 01:19:15;;;;;;;21.30;10.00;;;;;;;2.35;69.47;98777.79;79712;1292;3011956;-64
2023/03/04 01:21:42;;;;;;;18.60;9.60;;;;;;;2.29;69.69;98775.27;78387;1294;3026661;-65
2023/03/04 01:24:11;;;;;;;19.50;10.40;;;;;;;2.14;70.61;98776.15;79673;1293;3013185;-66
2023/03/04 01:26:43;;;;;;;23.60;11.10;;;;;;;2.15;70.59;98773.54;78565;1295;3068694;-65
2023/03/04 01:29:09;;;;;;;20.30;10.30;;;;;;;2.13;70.62;98769.30;79796;1291;3013742;-66
2023/03/04 01:31:37;;;;;;;19.70;9.80;;;;;;;2.01;71.22;98762.30;79751;1292;3012410;-65
2023/03/04 01:34:05;;;;;;;19.50;8.90;;;;;;;1.84;71.76;98765.87;78447;1292;3053659;-65
2023/03/04 01:36:32;;;;;;;13.30;7.70;;;;;;;1.80;72.09;98775.33;79801;1295;3014927;-66
2023/03/04 01:38:59;;;;;;;19.50;11.00;;;;;;;1.98;71.64;98769.17;79701;1295;3011643;-65
2023/03/04 01:41:34;;;;;;;19.80;11.10;;;;;;;1.93;71.67;98774.17;78502;1292;3070255;-64
2023/03/04 01:44:01;;;;;;;18.20;10.20;;;;;;;1.98;71.63;98776.08;79703;1292;3012904;-64
2023/03/04 01:46:28;;;;;;;20.00;11.40;;;;;;;1.83;72.18;98777.99;79730;1291;3012930;-64
2023/03/04 01:48:56;;;;;;;22.10;11.60;;;;;;;1.71;72.60;98778.23;78535;1292;3053308;-67
2023/03/04 01:51:23;;;;;;;19.80;10.10;;;;;;;1.66;72.87;98786.34;79754;1292;3013116;-67
2023/03/04 01:53:52;;;;;;;18.90;9.30;;;;;;;1.73;72.61;98781.27;79649;1297;3011595;-66
2023/03/04 01:56:23;;;;;;;13.50;7.40;;;;;;;1.77;72.83;98784.58;78519;1296;3068675;-65
2023/03/04 01:59:13;;;;;;;16.40;7.80;;;;;;;2.30;72.37;98789.23;78578;1293;3051379;-65
2023/03/04 02:01:43;;;;;;;14.40;7.60;;;;;;;3.32;69.57;98788.66;78543;1292;3056703;-65
2023/03/04 02:04:10;;;;;;;14.30;7.10;;;;;;;3.21;68.25;98785.84;79944;1292;3012828;-66
2023/03/04 02:06:40;;;;;;;18.10;8.90;;;;;;;2.99;68.67;98788.13;79109;1294;3011563;-64
2023/03/04 02:09:07;;;;;;;19.80;8.60;;;;;;;2.66;69.23;98789.77;79706;1298;3013514;-65
2023/03/04 02:11:35;;;;;;;13.80;8.10;;;;;;;2.38;69.85;98796.36;79714;1293;3011623;-65
2023/03/04 02:14:04;;;;;;;15.70;8.20;;;;;;;2.29;69.99;98795.81;78559;1293;3069467;-66
2023/03/04 02:16:31;;;;;;;15.80;8.80;;;;;;;2.15;70.50;98795.83;80029;1291;3013380;-65
2023/03/04 02:18:59;;;;;;;20.00;8.60;;;;;;;1.87;71.73;98796.86;79663;1292;3013398;-65
2023/03/04 02:21:30;;;;;;;20.40;8.80;;;;;;;1.88;71.62;98795.92;78520;1296;3053884;-63
2023/03/04 02:23:59;;;;;;;22.10;9.70;;;;;;;1.73;72.23;98786.82;79813;1292;3011524;-62
2023/03/04 02:26:27;;;;;;;16.40;8.60;;;;;;;1.55;73.03;98789.85;78305;1295;3026251;-62
2023/03/04 02:28:55;;;;;;;16.40;8.70;;;;;;;1.58;72.94;98788.34;79496;1297;3015290;-65
2023/03/04 02:31:30;;;;;;;25.00;9.90;;;;;;;1.49;72.96;98786.27;79416;1292;3011948;-64
2023/03/04 02:34:00;;;;;;;21.60;10.50;;;;;;;1.40;73.60;98789.99;78401;1297;3058301;-66
2023/03/04 02:36:27;;;;;;;25.20;10.50;;;;;;;1.42;73.41;98789.60;78335;1291;3039446;-66
2023/03/04 02:38:54;;;;;;;23.10;11.40;;;;;;;1.32;73.88;98787.87;79693;1291;3012042;-66
2023/03/04 02:41:26;;;;;;;19.30;9.90;;;;;;;1.22;74.31;98787.50;78477;1292;3051251;-67
2023/03/04 02:43:57;;;;;;;19.10;9.40;;;;;;;1.25;74.21;98785.16;79727;1292;3013044;-66
2023/03/04 02:46:26;;;;;;;16.70;9.40;;;;;;;1.17;74.61;98781.64;78484;1292;3068653;-65
2023/03/04 02:48:53;;;;;;;21.40;9.90;;;;;;;1.19;74.52;98780.20;79904;1292;3014672;-64
2023/03/04 02:51:20;;;;;;;19.10;10.40;;;;;;;1.23;74.06;98788.70;79779;1291;3011631;-65
2023/03/04 02:53:49;;;;;;;12.50;6.00;;;;;;;1.17;74.56;98784.55;78466;1297;3052780;-65
2023/03/04 02:56:16;;;;;;;16.40;8.00;;;;;;;1.67;73.87;98782.85;79601;1298;3012528;-65
2023/03/04 02:58:42;;;;;;;16.20;8.40;;;;;;;2.39;72.54;98780.57;79755;1295;3011660;-67
2023/03/04 03:01:12;;;;;;;14.90;8.70;;;;;;;2.60;70.72;98782.91;78498;1297;3068157;-66
2023/03/04 03:03:38;;;;;;;18.60;10.20;;;;;;;2.54;71.11;98783.99;79721;1292;3013104;-66
2023/03/04 03:06:05;;;;;;;23.80;11.00;;;;;;;2.30;70.79;98781.81;79688;1292;3011737;-66
2023/03/04 03:08:39;;;;;;;26.50;11.80;;;;;;;2.22;70.68;98776.05;78553;1298;3054780;-68
2023/03/04 03:11:07;;;;;;;18.50;10.80;;;;;;;1.80;71.72;98780.31;79695;1298;3014650;-67
2023/03/04 03:13:34;;;;;;;16.80;9.20;;;;;;;1.67;72.06;98779.74;79645;1292;3011622;-68
2023/03/04 03:16:05;;;;;;;19.90;10.00;;;;;;;1.70;71.70;98776.72;78324;1295;3069490;-65
2023/03/04 03:18:33;;;;;;;17.70;10.00;;;;;;;1.48;72.45;98778.70;79866;1292;3013324;-65
2023/03/04 03:21:00;;;;;;;17.30;8.20;;;;;;;1.23;73.53;98774.55;79741;1292;3011917;-66
2023/03/04 03:23:29;;;;;;;16.00;9.00;;;;;;;1.18;73.89;98773.14;78371;1292;3052805;-67
2023/03/04 03:25:58;;;;;;;15.90;8.20;;;;;;;1.13;73.93;98776.05;79687;1296;3011747;-65
2023/03/04 03:28:28;;;;;;;18.10;9.30;;;;;;;0.95;74.89;98773.03;78499;1297;3029478;-66
2023/03/04 03:30:54;;;;;;;19.10;10.00;;;;;;;0.90;75.22;98766.11;79739;1292;3012841;-66
2023/03/04 03:33:21;;;;;;;22.10;10.40;;;;;;;0.96;74.94;98768.88;79688;1292;3013236;-66
2023/03/04 03:35:49;;;;;;;16.70;9.10;;;;;;;0.98;74.77;98766.39;78360;1295;3028236;-64
2023/03/04 03:38:17;;;;;;;18.40;9.40;;;;;;;0.89;75.10;98768.91;79728;1296;3013044;-63
2023/03/04 03:40:44;;;;;;;20.60;9.80;;;;;;;0.74;75.65;98764.21;79693;1292;3011671;-64
2023/03/04 03:43:12;;;;;;;10.30;5.40;;;;;;;0.68;76.55;98768.36;78400;1298;3053778;-64
2023/03/04 03:45:39;;;;;;;12.40;6.90;;;;;;;1.47;75.05;98768.02;79580;1297;3013042;-65
2023/03/04 03:48:05;;;;;;;14.10;7.80;;;;;;;2.24;72.62;98758.88;79816;1292;3011452;-65
2023/03/04 03:50:33;;;;;;;18.60;8.50;;;;;;;2.36;71.82;98763.92;78478;1297;3026127;-64
2023/03/04 03:53:00;;;;;;;16.30;8.70;;;;;;;2.15;71.52;98767.85;79763;1292;3013168;-66
2023/03/04 03:58:05;;;;;;;20.60;10.50;;;;;;;1.81;72.09;98763.05;80381;1301;3013396;-66
2023/03/04 04:00:32;;;;;;;21.50;9.40;;;;;;;1.41;72.96;98767.36;78985;1304;3013802;-65
2023/03/04 04:02:59;;;;;;;22.00;11.30;;;;;;;1.31;73.60;98765.12;79052;1303;3012918;-65
2023/03/04 04:05:27;;;;;;;20.30;10.60;;;;;;;1.16;73.99;98762.52;77926;1305;3051620;-68
2023/03/04 04:07:58;;;;;;;24.70;12.20;;;;;;;0.99;74.37;98764.45;79158;1300;3013723;-65
2023/03/04 04:10:25;;;;;;;21.10;9.80;;;;;;;0.89;74.75;98760.47;75843;1298;5100245;-64
2023/03/04 04:12:52;;;;;;;23.20;11.80;;;;;;;0.82;75.13;98762.42;79466;1298;3013617;-66
2023/03/04 04:15:26;;;;;;;21.20;11.60;;;;;;;0.71;75.72;98760.70;78072;1302;3054228;-66
2023/03/04 04:17:53;;;;;;;22.80;11.00;;;;;;;0.67;75.76;98763.92;79326;1303;3013666;-65
2023/03/04 04:20:20;;;;;;;19.50;10.20;;;;;;;0.61;76.10;98763.92;79330;1300;3011804;-66
2023/03/04 04:22:49;;;;;;;17.40;10.00;;;;;;;0.52;76.78;98765.45;78197;1299;3068532;-66
2023/03/04 04:25:16;;;;;;;23.50;11.80;;;;;;;0.57;76.43;98763.02;79377;1295;3013149;-65
2023/03/04 04:27:44;;;;;;;16.60;7.30;;;;;;;0.62;76.82;98761.84;79462;1298;3012762;-66
2023/03/04 04:30:12;;;;;;;16.30;9.00;;;;;;;1.27;75.51;98763.17;78170;1298;3052608;-67
2023/03/04 04:32:38;;;;;;;20.10;10.00;;;;;;;1.80;73.68;98761.86;79290;1300;3012736;-64
2023/03/04 04:35:05;;;;;;;18.50;8.90;;;;;;;1.81;73.35;98760.45;79358;1300;3011681;-64
2023/03/04 04:37:33;;;;;;;25.00;10.30;;;;;;;1.92;72.64;98761.26;78293;1300;3067552;-65
2023/03/04 04:40:03;;;;;;;20.00;9.80;;;;;;;1.59;72.91;98761.20;79473;1298;3013766;-64
2023/03/04 04:42:32;;;;;;;24.80;10.70;;;;;;;1.33;73.79;98763.84;78830;1299;3011509;-64
2023/03/04 04:45:01;;;;;;;19.90;9.90;;;;;;;1.10;74.25;98760.98;79339;1295;3013327;-67
2023/03/04 04:47:27;;;;;;;17.10;8.50;;;;;;;1.03;74.73;98765.35;79259;1300;3013198;-65
2023/03/04 04:49:56;;;;;;;18.40;8.70;;;;;;;0.90;75.00;98758.88;78079;1299;3053422;-65
2023/03/04 04:52:22;;;;;;;18.70;10.30;;;;;;;0.94;74.88;98759.80;79316;1299;3012959;-65
2023/03/04 04:54:49;;;;;;;22.40;10.30;;;;;;;0.75;75.77;98767.78;79263;1299;3011957;-65
2023/03/04 04:57:16;;;;;;;21.50;9.60;;;;;;;0.59;76.73;98771.24;78037;1300;3029692;-65
2023/03/04 04:59:43;;;;;;;19.60;10.50;;;;;;;0.75;75.99;98770.39;79392;1297;3013650;-63
2023/03/04 05:02:11;;;;;;;17.90;8.80;;;;;;;0.71;75.80;98767.05;79358;1294;3011572;-65
2023/03/04 05:04:41;;;;;;;10.20;5.40;;;;;;;0.75;76.49;98768.33;78115;1297;3053653;-62
2023/03/04 05:07:07;;;;;;;16.90;8.60;;;;;;;1.59;75.51;98765.87;79493;1300;3013325;-62
2023/03/04 05:09:34;;;;;;;16.50;9.20;;;;;;;2.34;72.76;98768.65;79219;1300;3013422;-63
2023/03/04 05:12:02;;;;;;;21.60;9.10;;;;;;;2.07;72.15;98767.45;78024;1300;3028951;-66
2023/03/04 05:14:35;;;;;;;16.50;9.10;;;;;;;1.78;73.03;98772.61;79225;1297;3012786;-64
2023/03/04 05:17:03;;;;;;;17.50;8.50;;;;;;;1.75;72.94;98779.80;78092;1300;3054364;-63
2023/03/04 05:19:30;;;;;;;19.60;9.60;;;;;;;1.58;73.59;98789.91;79459;1300;3013476;-64
2023/03/04 05:21:59;;;;;;;23.50;10.60;;;;;;;1.41;73.94;98793.77;79211;1298;3011957;-63
2023/03/04 05:24:27;;;;;;;18.50;9.50;;;;;;;1.35;74.23;98796.55;78056;1298;3068837;-65
2023/03/04 05:26:53;;;;;;;23.60;11.30;;;;;;;1.30;74.10;98800.86;79356;1296;3020775;-63
2023/03/04 05:29:20;;;;;;;26.00;12.10;;;;;;;1.07;75.18;98809.03;79360;1298;3011688;-64
2023/03/04 05:31:48;;;;;;;23.60;11.30;;;;;;;1.00;76.08;98804.62;78157;1300;3027155;-67
2023/03/04 05:34:15;;;;;;;25.20;11.40;;;;;;;1.06;75.73;98811.81;79419;1300;3018674;-65
2023/03/04 05:36:41;;;;;;;26.70;12.60;;;;;;;1.12;75.45;98817.15;79343;1301;3011663;-65
2023/03/04 05:39:10;;;;;;;28.10;12.20;;;;;;;0.94;76.50;98813.77;78245;1300;3068513;-65
2023/03/04 05:41:37;;;;;;;15.70;6.50;;;;;;;0.92;77.55;98814.85;79364;1297;3013380;-65
2023/03/04 05:44:04;;;;;;;20.50;9.10;;;;;;;1.50;75.96;98817.77;79362;1296;3011650;-65
2023/03/04 05:46:32;;;;;;;21.20;10.30;;;;;;;2.40;74.18;98816.14;78127;1298;3053951;-65
2023/03/04 05:48:58;;;;;;;21.30;10.30;;;;;;;2.72;72.40;98817.36;79403;1300;3013010;-66
2023/03/04 05:51:25;;;;;;;22.60;11.00;;;;;;;2.47;71.61;98815.04;79370;1298;3011458;-67
2023/03/04 05:53:53;;;;;;;21.80;10.20;;;;;;;2.14;72.76;98812.30;77995;1300;3028104;-62
2023/03/04 05:56:20;;;;;;;20.30;10.80;;;;;;;1.96;73.17;98815.52;79271;1300;3012996;-60
2023/03/04 05:58:47;;;;;;;19.90;10.50;;;;;;;1.88;73.58;98818.75;79447;1300;3011519;-64
2023/03/04 12:28:02;;;;;;;10.70;6.10;;;;;;;7.35;51.05;98462.61;80487;1295;3013059;-63
2023/03/04 12:30:55;;;;;;;17.50;6.60;;;;;;;7.54;50.49;98452.15;77989;1301;3054211;-66
2023/03/04 12:33:41;;;;;;;17.60;6.20;;;;;;;7.70;49.96;98453.52;78172;1301;3050482;-61
2023/03/04 12:36:31;;;;;;;14.20;6.20;;;;;;;7.61;50.13;98461.95;78279;1301;3053291;-63
2023/03/04 12:39:27;;;;;;;16.70;7.50;;;;;;;7.72;49.99;98469.06;78031;1301;3053164;-62
2023/03/04 12:42:19;;;;;;;12.70;6.60;;;;;;;7.68;49.83;98443.58;76339;1295;3069615;-66
2023/03/04 12:45:12;;;;;;;15.10;8.20;;;;;;;7.64;49.99;98461.94;78210;1298;3050157;-66
2023/03/04 12:48:01;;;;;;;;;;;;;;;7.70;49.93;98449.89;78294;1299;3056864;-61
2023/03/04 12:50:38;;;;;;;17.50;7.10;;;;;;;7.80;49.74;98425.38;78313;1296;3048636;-61
2023/03/04 12:53:18;;;;;;;10.90;5.40;;;;;;;8.06;48.72;98431.30;78342;1298;3056131;-65
2023/03/04 12:55:46;;;;;;;16.20;7.30;;;;;;;7.81;48.37;98450.20;78228;1298;3051578;-66
2023/03/04 12:58:17;;;;;;;12.30;6.10;;;;;;;7.81;48.18;98425.78;79224;1302;3013036;-63
2023/03/04 13:01:07;;;;;;;15.70;7.10;;;;;;;7.91;48.50;98433.86;78088;1299;3070610;-62
2023/03/04 13:03:52;;;;;;;17.10;7.30;;;;;;;7.82;48.23;98448.22;78403;1296;3052388;-65
2023/03/04 13:06:30;;;;;;;17.60;8.30;;;;;;;7.88;48.26;98429.04;78462;1296;3056781;-63
2023/03/04 13:09:18;;;;;;;13.80;7.00;;;;;;;8.00;48.72;98423.15;78418;1298;3051855;-65
2023/03/04 13:12:19;;;;;;;15.60;7.60;;;;;;;7.88;48.67;98418.52;78464;1296;3053612;-67
2023/03/04 13:15:05;;;;;;;13.90;7.00;;;;;;;7.71;49.29;98404.52;78431;1298;3050441;-63
2023/03/04 13:17:53;;;;;;;16.60;7.90;;;;;;;8.17;48.50;98403.58;78330;1298;3054268;-66
2023/03/04 13:20:40;;;;;;;13.90;6.30;;;;;;;8.05;47.63;98418.64;78028;1308;3054315;-61
2023/03/04 13:23:07;;;;;;;17.10;7.40;;;;;;;8.06;47.43;98398.17;77958;1301;3069334;-65
2023/03/04 13:25:56;;;;;;;16.40;7.70;;;;;;;8.27;47.37;98386.08;79433;1296;3013837;-64
2023/03/04 13:28:34;;;;;;;13.50;6.40;;;;;;;8.32;47.05;98384.03;78169;1295;3049257;-62
2023/03/04 13:31:09;;;;;;;11.50;5.30;;;;;;;8.23;46.90;98379.61;78241;1298;3053593;-65
2023/03/04 13:33:42;;;;;;;11.80;6.30;;;;;;;7.96;46.74;98375.64;79012;1298;3011697;-65
2023/03/04 13:36:33;;;;;;;16.10;6.80;;;;;;;8.09;46.74;98370.42;79495;1296;3011891;-66
2023/03/04 13:39:13;;;;;;;19.60;6.20;;;;;;;8.03;46.01;98356.20;78231;1298;3052798;-67
2023/03/04 13:41:46;;;;;;;15.70;6.30;;;;;;;7.93;46.41;98375.69;78375;1298;3052189;-63
2023/03/04 13:44:33;;;;;;;11.80;6.00;;;;;;;8.07;46.80;98347.74;79589;1295;3011674;-63
2023/03/04 13:47:33;;;;;;;16.20;6.60;;;;;;;8.03;47.25;98347.80;78225;1298;3051229;-63
2023/03/04 13:50:23;;;;;;;14.90;7.00;;;;;;;8.33;46.91;98341.06;77966;1299;3057575;-66
2023/03/04 13:52:51;;;;;;;12.10;5.50;;;;;;;8.30;47.21;98343.04;78221;1297;3051306;-67
2023/03/04 13:55:32;;;;;;;16.20;7.40;;;;;;;8.14;46.70;98339.53;79390;1298;3012876;-66
2023/03/04 13:58:06;;;;;;;11.40;6.40;;;;;;;8.06;47.04;98342.00;78285;1298;3053256;-64
2023/03/04 14:00:33;;;;;;;15.30;7.10;;;;;;;8.08;46.82;98337.02;79233;1300;3013675;-63
2023/03/04 14:03:13;;;;;;;12.40;5.50;;;;;;;8.11;46.24;98344.46;78075;1301;3068811;-64
2023/03/04 14:05:41;;;;;;;11.90;5.90;;;;;;;7.98;46.37;98343.08;78169;1299;3050865;-67
2023/03/04 14:08:18;;;;;;;12.60;6.30;;;;;;;8.22;46.55;98325.38;79215;1296;3013000;-65
2023/03/04 14:10:54;;;;;;;13.30;6.20;;;;;;;8.25;46.53;98325.89;78251;1296;3054256;-67
2023/03/04 14:13:24;;;;;;;12.00;5.80;;;;;;;8.08;46.65;98323.58;78208;1298;3050167;-65
2023/03/04 14:15:55;;;;;;;13.50;6.40;;;;;;;8.15;47.02;98327.66;79457;1298;3011591;-63
2023/03/04 14:18:27;;;;;;;13.30;6.00;;;;;;;8.18;47.37;98317.48;78415;1296;3070059;-66
2023/03/04 14:20:57;;;;;;;14.30;7.50;;;;;;;8.23;47.03;98313.16;79291;1301;3013446;-66
2023/03/04 14:23:27;;;;;;;14.80;6.10;;;;;;;7.85;47.55;98313.59;78004;1301;3058175;-63
2023/03/04 14:26:13;;;;;;;15.30;6.90;;;;;;;7.80;47.75;98314.45;79503;1295;3013654;-65
2023/03/04 14:28:48;;;;;;;12.20;5.60;;;;;;;7.62;48.75;98307.11;78277;1298;3052164;-65
2023/03/04 14:31:17;;;;;;;25.30;7.30;;;;;;;7.64;48.93;98295.70;79492;1298;3013134;-64
2023/03/04 14:33:47;;;;;;;15.30;6.90;;;;;;;7.54;48.97;98294.61;78364;1298;3028079;-65
2023/03/04 14:36:16;;;;;;;16.00;6.60;;;;;;;7.30;49.55;98294.09;79457;1296;3013789;-63
2023/03/04 14:38:46;;;;;;;14.70;6.30;;;;;;;7.34;49.47;98294.35;78263;1307;3027595;-66
2023/03/04 14:41:34;;;;;;;17.70;6.70;;;;;;;7.15;49.55;98292.47;79296;1295;3011902;-62
2023/03/04 14:44:08;;;;;;;18.30;7.00;;;;;;;7.19;49.28;98298.11;78376;1297;3049786;-64
2023/03/04 14:46:41;;;;;;;15.10;6.40;;;;;;;7.11;49.67;98289.95;79607;1296;3011352;-62
2023/03/04 14:49:12;;;;;;;20.00;6.50;;;;;;;6.97;49.75;98295.55;78330;1298;3049770;-67
2023/03/04 14:51:46;;;;;;;13.40;6.00;;;;;;;6.96;50.06;98295.08;79531;1308;3013655;-64
2023/03/04 14:54:38;;;;;;;14.70;6.60;;;;;;;6.83;49.89;98292.23;78285;1298;3055233;-65
2023/03/04 14:57:25;;;;;;;13.80;6.10;;;;;;;6.69;50.23;98298.89;79121;1296;3011587;-66
2023/03/04 14:59:53;;;;;;;10.40;6.30;;;;;;;6.63;50.36;98297.70;78218;1301;3070051;-66
2023/03/04 15:02:37;;;;;;;16.20;6.80;;;;;;;6.81;50.12;98294.45;79293;1295;3018891;-62
2023/03/04 15:05:29;;;;;;;14.00;5.40;;;;;;;6.72;50.27;98291.86;78222;1298;3048811;-64
2023/03/04 15:08:04;;;;;;;11.70;5.90;;;;;;;6.64;50.44;98296.78;78317;1296;3053218;-61
2023/03/04 15:10:36;;;;;;;12.90;6.10;;;;;;;6.78;50.17;98292.95;79643;1298;3011693;-61
2023/03/04 15:13:06;;;;;;;15.40;7.50;;;;;;;6.75;50.08;98307.91;78394;1299;3051385;-67
2023/03/04 15:15:40;;;;;;;13.50;6.10;;;;;;;6.77;50.08;98305.86;79362;1296;3011747;-69
2023/03/04 15:18:25;;;;;;;13.10;5.90;;;;;;;6.62;50.27;98302.98;78310;1298;3068572;-63
2023/03/04 15:20:56;;;;;;;14.20;6.70;;;;;;;6.64;50.36;98309.98;78341;1298;3050855;-61
2023/03/04 15:23:25;;;;;;;11.90;6.20;;;;;;;6.58;50.83;98297.16;79513;1294;3014676;-66
2023/03/04 15:25:53;;;;;;;11.60;5.60;;;;;;;6.51;50.87;98292.49;79491;1299;3011705;-64
2023/03/04 15:28:21;;;;;;;11.90;6.00;;;;;;;6.47;50.96;98286.50;78250;1298;3050512;-63
2023/03/04 15:30:47;;;;;;;13.70;6.20;;;;;;;6.36;51.07;98289.46;79431;1301;3012864;-63
2023/03/04 15:33:14;;;;;;;13.80;6.10;;;;;;;6.25;51.13;98293.77;79433;1297;3011612;-66
2023/03/04 15:35:58;;;;;;;12.20;6.20;;;;;;;6.31;51.12;98289.77;78195;1298;3026366;-63
2023/03/04 15:38:26;;;;;;;12.70;5.80;;;;;;;6.20;51.26;98295.33;78138;1298;3058943;-64
2023/03/04 15:40:53;;;;;;;15.50;6.40;;;;;;;6.16;51.25;98294.49;79153;1296;3018688;-61
2023/03/04 15:43:21;;;;;;;15.00;6.50;;;;;;;6.04;51.64;98298.35;79394;1296;3013205;-66
2023/03/04 15:45:49;;;;;;;11.60;6.60;;;;;;;6.11;51.60;98298.65;78203;1299;3054866;-63
2023/03/04 15:48:17;;;;;;;18.00;6.90;;;;;;;6.02;51.61;98299.66;79370;1297;3013410;-63
2023/03/04 15:50:56;;;;;;;12.90;6.40;;;;;;;5.83;52.01;98301.14;79495;1295;3013544;-60
2023/03/04 15:53:35;;;;;;;16.50;7.10;;;;;;;5.80;52.18;98295.08;78159;1299;3056407;-62
2023/03/04 15:56:03;;;;;;;10.30;5.80;;;;;;;5.89;52.06;98299.58;78254;1298;3049620;-64
2023/03/04 15:58:31;;;;;;;14.30;6.00;;;;;;;5.85;52.23;98291.27;79282;1302;3014688;-66
2023/03/04 16:00:58;;;;;;;15.10;6.30;;;;;;;5.79;52.25;98301.02;79398;1298;3012792;-64
2023/03/04 16:03:26;;;;;;;10.00;5.70;;;;;;;5.75;52.18;98293.99;78236;1298;3051613;-66
2023/03/04 16:05:52;;;;;;;13.60;6.30;;;;;;;5.65;52.41;98295.44;79511;1297;3021384;-66
2023/03/04 16:08:25;;;;;;;12.30;5.90;;;;;;;5.65;52.45;98288.80;79009;1297;3013660;-61
2023/03/04 16:10:52;;;;;;;16.20;7.10;;;;;;;5.65;52.59;98290.40;79378;1295;3013660;-63
2023/03/04 16:13:21;;;;;;;10.70;6.10;;;;;;;5.52;52.78;98282.60;79479;1296;3011667;-62
2023/03/04 16:15:49;;;;;;;16.60;5.50;;;;;;;5.49;52.92;98281.63;78298;1297;3051370;-63
2023/03/04 16:18:15;;;;;;;15.50;7.30;;;;;;;5.45;52.97;98275.05;79442;1299;3012888;-63
2023/03/04 16:20:44;;;;;;;14.60;6.70;;;;;;;5.46;52.98;98272.39;79500;1298;3013301;-63
2023/03/04 16:23:15;;;;;;;13.70;7.10;;;;;;;5.34;53.51;98271.36;78201;1301;3051659;-62
2023/03/04 16:25:43;;;;;;;13.30;6.70;;;;;;;5.27;53.55;98264.64;79482;1298;3011573;-63
2023/03/04 16:28:12;;;;;;;15.40;8.30;;;;;;;5.33;53.66;98253.53;78271;1295;3029603;-64
2023/03/04 16:30:40;;;;;;;20.40;9.70;;;;;;;5.27;53.71;98260.48;79510;1298;3012821;-62
2023/03/04 16:33:07;;;;;;;22.70;8.60;;;;;;;5.16;54.04;98259.70;79572;1298;3012948;-63
2023/03/04 16:35:36;;;;;;;18.10;9.20;;;;;;;5.13;54.50;98257.27;78202;1298;3052415;-63
2023/03/04 16:38:05;;;;;;;19.60;9.20;;;;;;;5.10;54.46;98252.62;79569;1296;3013800;-64
2023/03/04 16:40:34;;;;;;;18.70;8.80;;;;;;;5.02;54.93;98257.02;78272;1296;3056066;-62
2023/03/04 16:43:00;;;;;;;17.70;8.10;;;;;;;5.01;55.18;98253.64;79437;1295;3020701;-63
2023/03/04 16:45:30;;;;;;;18.90;7.50;;;;;;;4.91;55.42;98259.41;79422;1295;3011772;-66
2023/03/04 16:47:58;;;;;;;18.10;9.40;;;;;;;4.99;55.48;98242.08;78293;1297;3051960;-65
2023/03/04 16:50:26;;;;;;;17.30;8.90;;;;;;;4.87;55.71;98245.73;79512;1295;3013822;-64
2023/03/04 16:52:54;;;;;;;16.70;7.30;;;;;;;4.81;55.83;98252.33;79334;1296;3012185;-64
2023/03/04 16:55:26;;;;;;;18.00;8.60;;;;;;;4.76;56.05;98250.17;78298;1298;3057439;-60
2023/03/04 16:57:53;;;;;;;17.00;8.20;;;;;;;4.79;56.01;98258.48;79456;1298;3013240;-62
2023/03/04 17:00:24;;;;;;;21.70;9.30;;;;;;;4.79;56.17;98251.93;78340;1296;3053214;-63
2023/03/04 17:02:57;;;;;;;17.00;8.60;;;;;;;4.68;56.41;98252.86;79546;1298;3013157;-64
2023/03/04 17:05:28;;;;;;;15.50;8.20;;;;;;;4.68;56.46;98259.11;78156;1297;3053282;-64
2023/03/04 17:07:55;;;;;;;16.60;7.70;;;;;;;4.73;56.25;98253.62;79471;1298;3011809;-61
2023/03/04 17:10:25;;;;;;;16.80;7.10;;;;;;;4.74;56.49;98248.05;79006;1295;3013221;-60
2023/03/04 17:12:52;;;;;;;11.60;6.40;;;;;;;4.68;56.57;98249.55;79437;1295;3012978;-66
2023/03/04 17:15:20;;;;;;;14.10;7.00;;;;;;;4.68;56.55;98244.52;79407;1296;3014136;-65
2023/03/04 17:17:51;;;;;;;16.70;7.00;;;;;;;4.74;56.34;98250.13;78120;1295;3054298;-63
2023/03/04 17:20:24;;;;;;;19.20;7.00;;;;;;;4.72;56.44;98244.17;78899;1298;3013261;-67
2023/03/04 17:22:52;;;;;;;16.90;7.60;;;;;;;4.66;56.39;98245.88;79465;1297;3013265;-65
2023/03/04 17:25:18;;;;;;;13.60;7.10;;;;;;;4.55;56.91;98246.14;79449;1298;3011501;-64
2023/03/04 17:27:47;;;;;;;13.70;7.40;;;;;;;4.54;56.81;98256.40;78179;1297;3027095;-63
2023/03/04 17:30:14;;;;;;;21.20;7.50;;;;;;;4.48;56.81;98248.61;79371;1296;3019126;-64
2023/03/04 17:32:46;;;;;;;18.00;7.40;;;;;;;4.48;56.74;98255.90;78378;1298;3049972;-66
2023/03/04 17:35:13;;;;;;;19.50;9.10;;;;;;;4.47;57.01;98259.60;79500;1298;3018173;-61
2023/03/04 17:37:40;;;;;;;15.60;7.60;;;;;;;4.44;57.07;98258.19;79399;1298;3011646;-64
2023/03/04 17:40:12;;;;;;;16.50;7.70;;;;;;;4.40;57.49;98257.55;78454;1298;3053636;-61
2023/03/04 17:42:42;;;;;;;20.50;8.00;;;;;;;4.43;57.68;98254.09;79339;1301;3013041;-64
2023/03/04 17:45:10;;;;;;;16.10;7.60;;;;;;;4.43;57.65;98258.60;78248;1298;3053167;-60
2023/03/04 17:47:38;;;;;;;14.70;7.30;;;;;;;4.44;57.93;98255.05;79480;1298;3013382;-65
2023/03/04 17:50:05;;;;;;;17.40;8.60;;;;;;;4.40;57.97;98260.29;79474;1295;3011865;-62
2023/03/04 17:52:34;;;;;;;18.60;8.50;;;;;;;4.41;58.03;98269.77;78158;1301;3052773;-64
2023/03/04 17:55:00;;;;;;;18.90;8.40;;;;;;;4.34;58.56;98257.84;79607;1298;3012999;-63
2023/03/04 17:57:27;;;;;;;18.90;8.70;;;;;;;4.25;59.06;98264.06;79487;1298;3011589;-62
2023/03/04 17:59:55;;;;;;;15.80;8.10;;;;;;;4.30;59.04;98266.54;78275;1298;3029314;-63
2023/03/04 18:02:22;;;;;;;18.80;8.90;;;;;;;4.22;59.43;98268.56;79656;1295;3015803;-68